sensor_id;sensor_type;location;lat;lon;timestamp;P1;durP1;ratioP1;P2;durP2;ratioP2
2892;SDS011;1456;51.840;12.184;2023-06-04T00:03:06;7.53;;;7.03;;
2892;SDS011;1456;51.840;12.184;2023-06-04T00:05:32;6.73;;;6.63;;
2892;SDS011;1456;51.840;12.184;2023-06-04T00:07:58;7.30;;;7.20;;
2892;SDS011;1456;51.840;12.184;2023-06-04T00:10:23;6.10;;;5.90;;
2892;SDS011;1456;51.840;12.184;2023-06-04T00:15:21;7.33;;;7.23;;
2892;SDS011;1456;51.840;12.184;2023-06-04T00:17:46;7.70;;;7.60;;
2892;SDS011;1456;51.840;12.184;2023-06-04T00:20:13;7.43;;;7.30;;
2892;SDS011;1456;51.840;12.184;2023-06-04T00:22:39;7.90;;;7.70;;
2892;SDS011;1456;51.840;12.184;2023-06-04T00:25:07;7.47;;;7.27;;
2892;SDS011;1456;51.840;12.184;2023-06-04T00:27:35;7.00;;;6.80;;
2892;SDS011;1456;51.840;12.184;2023-06-04T00:32:33;6.40;;;6.30;;
2892;SDS011;1456;51.840;12.184;2023-06-04T00:34:59;9.03;;;7.40;;
2892;SDS011;1456;51.840;12.184;2023-06-04T00:37:27;6.57;;;6.13;;
2892;SDS011;1456;51.840;12.184;2023-06-04T00:42:28;4.93;;;4.73;;
2892;SDS011;1456;51.840;12.184;2023-06-04T00:44:55;5.50;;;5.40;;
2892;SDS011;1456;51.840;12.184;2023-06-04T00:47:26;6.07;;;5.93;;
2892;SDS011;1456;51.840;12.184;2023-06-04T00:49:56;6.07;;;5.97;;
2892;SDS011;1456;51.840;12.184;2023-06-04T00:52:24;5.03;;;4.93;;
2892;SDS011;1456;51.840;12.184;2023-06-04T00:54:51;6.40;;;5.50;;
2892;SDS011;1456;51.840;12.184;2023-06-04T00:57:18;5.80;;;5.60;;
2892;SDS011;1456;51.840;12.184;2023-06-04T00:59:45;6.70;;;6.50;;
2892;SDS011;1456;51.840;12.184;2023-06-04T01:02:12;4.73;;;4.73;;
2892;SDS011;1456;51.840;12.184;2023-06-04T01:07:22;5.30;;;5.20;;
2892;SDS011;1456;51.840;12.184;2023-06-04T01:09:49;6.23;;;6.03;;
2892;SDS011;1456;51.840;12.184;2023-06-04T01:12:24;5.00;;;4.70;;
2892;SDS011;1456;51.840;12.184;2023-06-04T01:14:49;3.40;;;3.40;;
2892;SDS011;1456;51.840;12.184;2023-06-04T01:17:34;4.00;;;3.90;;
2892;SDS011;1456;51.840;12.184;2023-06-04T01:22:56;3.23;;;3.23;;
2892;SDS011;1456;51.840;12.184;2023-06-04T01:25:34;3.43;;;3.13;;
2892;SDS011;1456;51.840;12.184;2023-06-04T01:28:04;2.80;;;2.80;;
2892;SDS011;1456;51.840;12.184;2023-06-04T01:30:36;3.33;;;3.23;;
2892;SDS011;1456;51.840;12.184;2023-06-04T01:33:10;2.40;;;2.40;;
2892;SDS011;1456;51.840;12.184;2023-06-04T01:35:42;2.90;;;2.90;;
2892;SDS011;1456;51.840;12.184;2023-06-04T01:38:10;1.80;;;1.80;;
2892;SDS011;1456;51.840;12.184;2023-06-04T01:40:38;2.30;;;2.30;;
2892;SDS011;1456;51.840;12.184;2023-06-04T01:43:05;1.30;;;1.30;;
2892;SDS011;1456;51.840;12.184;2023-06-04T01:45:30;2.63;;;2.37;;
2892;SDS011;1456;51.840;12.184;2023-06-04T01:47:56;2.33;;;2.33;;
2892;SDS011;1456;51.840;12.184;2023-06-04T01:50:30;2.40;;;2.30;;
2892;SDS011;1456;51.840;12.184;2023-06-04T01:52:56;2.43;;;2.33;;
2892;SDS011;1456;51.840;12.184;2023-06-04T01:57:58;3.17;;;3.07;;
2892;SDS011;1456;51.840;12.184;2023-06-04T02:00:25;2.37;;;2.37;;
2892;SDS011;1456;51.840;12.184;2023-06-04T02:02:51;2.20;;;2.20;;
2892;SDS011;1456;51.840;12.184;2023-06-04T02:05:18;2.60;;;2.60;;
2892;SDS011;1456;51.840;12.184;2023-06-04T02:07:44;7.97;;;3.80;;
2892;SDS011;1456;51.840;12.184;2023-06-04T02:10:17;1.40;;;1.40;;
2892;SDS011;1456;51.840;12.184;2023-06-04T02:13:03;2.33;;;2.33;;
2892;SDS011;1456;51.840;12.184;2023-06-04T02:15:29;2.33;;;2.13;;
2892;SDS011;1456;51.840;12.184;2023-06-04T02:17:57;2.47;;;2.47;;
2892;SDS011;1456;51.840;12.184;2023-06-04T02:22:54;3.37;;;3.27;;
2892;SDS011;1456;51.840;12.184;2023-06-04T02:25:22;2.00;;;1.90;;
2892;SDS011;1456;51.840;12.184;2023-06-04T02:27:56;1.80;;;1.80;;
2892;SDS011;1456;51.840;12.184;2023-06-04T02:30:23;2.33;;;2.33;;
2892;SDS011;1456;51.840;12.184;2023-06-04T02:32:50;2.40;;;2.40;;
2892;SDS011;1456;51.840;12.184;2023-06-04T02:35:17;4.43;;;2.53;;
2892;SDS011;1456;51.840;12.184;2023-06-04T02:37:43;1.40;;;1.40;;
2892;SDS011;1456;51.840;12.184;2023-06-04T02:40:09;2.60;;;2.50;;
2892;SDS011;1456;51.840;12.184;2023-06-04T02:45:05;1.80;;;1.80;;
2892;SDS011;1456;51.840;12.184;2023-06-04T02:47:31;3.10;;;3.00;;
2892;SDS011;1456;51.840;12.184;2023-06-04T02:50:00;1.73;;;1.73;;
2892;SDS011;1456;51.840;12.184;2023-06-04T02:52:27;2.73;;;2.53;;
2892;SDS011;1456;51.840;12.184;2023-06-04T02:54:52;1.73;;;1.73;;
2892;SDS011;1456;51.840;12.184;2023-06-04T02:57:19;1.37;;;1.37;;
2892;SDS011;1456;51.840;12.184;2023-06-04T02:59:44;1.33;;;1.23;;
2892;SDS011;1456;51.840;12.184;2023-06-04T03:02:12;1.53;;;1.53;;
2892;SDS011;1456;51.840;12.184;2023-06-04T03:04:40;6.80;;;2.50;;
2892;SDS011;1456;51.840;12.184;2023-06-04T03:07:09;1.90;;;1.90;;
2892;SDS011;1456;51.840;12.184;2023-06-04T03:09:36;2.03;;;2.03;;
2892;SDS011;1456;51.840;12.184;2023-06-04T03:12:02;2.40;;;2.17;;
2892;SDS011;1456;51.840;12.184;2023-06-04T03:14:31;2.53;;;2.43;;
2892;SDS011;1456;51.840;12.184;2023-06-04T03:16:59;1.87;;;1.77;;
2892;SDS011;1456;51.840;12.184;2023-06-04T03:19:32;1.20;;;1.20;;
2892;SDS011;1456;51.840;12.184;2023-06-04T03:21:59;1.20;;;1.20;;
2892;SDS011;1456;51.840;12.184;2023-06-04T03:24:26;1.70;;;1.70;;
2892;SDS011;1456;51.840;12.184;2023-06-04T03:26:53;1.87;;;1.77;;
2892;SDS011;1456;51.840;12.184;2023-06-04T03:29:21;1.43;;;1.33;;
2892;SDS011;1456;51.840;12.184;2023-06-04T03:31:47;1.00;;;1.00;;
2892;SDS011;1456;51.840;12.184;2023-06-04T03:34:12;1.90;;;1.57;;
2892;SDS011;1456;51.840;12.184;2023-06-04T03:36:38;2.03;;;1.93;;
2892;SDS011;1456;51.840;12.184;2023-06-04T03:39:04;2.60;;;2.40;;
2892;SDS011;1456;51.840;12.184;2023-06-04T03:41:30;0.90;;;0.90;;
2892;SDS011;1456;51.840;12.184;2023-06-04T03:43:55;1.13;;;1.13;;
2892;SDS011;1456;51.840;12.184;2023-06-04T03:46:21;1.10;;;1.10;;
2892;SDS011;1456;51.840;12.184;2023-06-04T03:48:51;4.27;;;3.13;;
2892;SDS011;1456;51.840;12.184;2023-06-04T03:51:16;1.07;;;1.07;;
2892;SDS011;1456;51.840;12.184;2023-06-04T03:53:43;0.90;;;0.90;;
2892;SDS011;1456;51.840;12.184;2023-06-04T03:56:10;0.90;;;0.90;;
2892;SDS011;1456;51.840;12.184;2023-06-04T03:58:52;2.77;;;2.60;;
2892;SDS011;1456;51.840;12.184;2023-06-04T04:01:19;2.27;;;2.17;;
2892;SDS011;1456;51.840;12.184;2023-06-04T04:03:45;1.07;;;1.07;;
2892;SDS011;1456;51.840;12.184;2023-06-04T04:06:15;1.23;;;1.23;;
2892;SDS011;1456;51.840;12.184;2023-06-04T04:08:41;2.67;;;2.40;;
2892;SDS011;1456;51.840;12.184;2023-06-04T04:11:09;2.20;;;2.10;;
2892;SDS011;1456;51.840;12.184;2023-06-04T04:13:39;1.20;;;1.20;;
2892;SDS011;1456;51.840;12.184;2023-06-04T04:16:05;6.80;;;1.37;;
2892;SDS011;1456;51.840;12.184;2023-06-04T04:18:35;1.37;;;1.37;;
2892;SDS011;1456;51.840;12.184;2023-06-04T04:21:02;1.10;;;1.10;;
2892;SDS011;1456;51.840;12.184;2023-06-04T04:23:29;1.00;;;1.00;;
2892;SDS011;1456;51.840;12.184;2023-06-04T04:25:59;1.47;;;1.37;;
2892;SDS011;1456;51.840;12.184;2023-06-04T04:30:59;1.93;;;1.93;;
2892;SDS011;1456;51.840;12.184;2023-06-04T04:33:28;1.23;;;1.23;;
2892;SDS011;1456;51.840;12.184;2023-06-04T04:35:58;1.53;;;1.43;;
2892;SDS011;1456;51.840;12.184;2023-06-04T04:38:27;1.10;;;1.10;;
2892;SDS011;1456;51.840;12.184;2023-06-04T04:40:53;1.20;;;1.20;;
2892;SDS011;1456;51.840;12.184;2023-06-04T04:43:42;1.27;;;0.97;;
2892;SDS011;1456;51.840;12.184;2023-06-04T04:46:09;1.73;;;1.63;;
2892;SDS011;1456;51.840;12.184;2023-06-04T04:48:37;1.77;;;1.40;;
2892;SDS011;1456;51.840;12.184;2023-06-04T04:51:07;2.10;;;2.10;;
2892;SDS011;1456;51.840;12.184;2023-06-04T04:53:34;1.90;;;1.90;;
2892;SDS011;1456;51.840;12.184;2023-06-04T04:56:02;2.80;;;2.70;;
2892;SDS011;1456;51.840;12.184;2023-06-04T05:00:58;1.87;;;1.87;;
2892;SDS011;1456;51.840;12.184;2023-06-04T05:03:23;2.40;;;2.40;;
2892;SDS011;1456;51.840;12.184;2023-06-04T05:05:49;1.80;;;1.80;;
2892;SDS011;1456;51.840;12.184;2023-06-04T06:14:46;6.15;;;6.15;;
2892;SDS011;1456;51.840;12.184;2023-06-04T06:17:11;6.70;;;6.60;;
2892;SDS011;1456;51.840;12.184;2023-06-04T06:19:38;7.00;;;6.90;;
2892;SDS011;1456;51.840;12.184;2023-06-04T06:22:04;7.10;;;7.00;;
2892;SDS011;1456;51.840;12.184;2023-06-04T06:24:30;7.27;;;7.07;;
2892;SDS011;1456;51.840;12.184;2023-06-04T06:26:56;8.53;;;6.50;;
2892;SDS011;1456;51.840;12.184;2023-06-04T06:29:21;6.40;;;6.30;;
2892;SDS011;1456;51.840;12.184;2023-06-04T06:31:47;10.43;;;7.60;;
2892;SDS011;1456;51.840;12.184;2023-06-04T06:34:14;6.60;;;6.60;;
2892;SDS011;1456;51.840;12.184;2023-06-04T06:36:40;7.70;;;7.60;;
2892;SDS011;1456;51.840;12.184;2023-06-04T06:39:06;7.20;;;7.10;;
2892;SDS011;1456;51.840;12.184;2023-06-04T06:41:33;8.50;;;8.40;;
2892;SDS011;1456;51.840;12.184;2023-06-04T06:43:59;8.33;;;7.27;;
2892;SDS011;1456;51.840;12.184;2023-06-04T06:46:24;6.67;;;6.57;;
2892;SDS011;1456;51.840;12.184;2023-06-04T06:48:50;7.67;;;7.47;;
2892;SDS011;1456;51.840;12.184;2023-06-04T06:51:16;7.40;;;7.30;;
2892;SDS011;1456;51.840;12.184;2023-06-04T06:53:42;7.40;;;7.30;;
2892;SDS011;1456;51.840;12.184;2023-06-04T06:56:08;8.00;;;7.90;;
2892;SDS011;1456;51.840;12.184;2023-06-04T06:58:34;7.57;;;7.47;;
2892;SDS011;1456;51.840;12.184;2023-06-04T07:01:00;7.70;;;7.60;;
2892;SDS011;1456;51.840;12.184;2023-06-04T07:03:29;9.40;;;9.23;;
2892;SDS011;1456;51.840;12.184;2023-06-04T07:05:55;8.70;;;8.60;;
2892;SDS011;1456;51.840;12.184;2023-06-04T07:08:20;8.70;;;8.60;;
2892;SDS011;1456;51.840;12.184;2023-06-04T07:10:46;8.27;;;8.17;;
2892;SDS011;1456;51.840;12.184;2023-06-04T07:13:14;9.20;;;9.00;;
2892;SDS011;1456;51.840;12.184;2023-06-04T07:15:40;8.47;;;8.37;;
2892;SDS011;1456;51.840;12.184;2023-06-04T07:18:06;9.03;;;8.93;;
2892;SDS011;1456;51.840;12.184;2023-06-04T07:20:31;8.23;;;8.13;;
2892;SDS011;1456;51.840;12.184;2023-06-04T07:22:57;8.27;;;8.17;;
2892;SDS011;1456;51.840;12.184;2023-06-04T07:25:23;8.27;;;8.17;;
2892;SDS011;1456;51.840;12.184;2023-06-04T07:27:49;7.93;;;7.83;;
2892;SDS011;1456;51.840;12.184;2023-06-04T07:30:17;8.00;;;7.80;;
2892;SDS011;1456;51.840;12.184;2023-06-04T07:32:47;8.33;;;8.23;;
2892;SDS011;1456;51.840;12.184;2023-06-04T07:35:14;8.20;;;8.10;;
2892;SDS011;1456;51.840;12.184;2023-06-04T07:37:39;9.43;;;9.13;;
2892;SDS011;1456;51.840;12.184;2023-06-04T07:40:06;9.43;;;9.30;;
2892;SDS011;1456;51.840;12.184;2023-06-04T07:42:33;8.90;;;8.80;;
2892;SDS011;1456;51.840;12.184;2023-06-04T07:44:59;8.83;;;8.73;;
2892;SDS011;1456;51.840;12.184;2023-06-04T07:47:26;8.60;;;8.50;;
2892;SDS011;1456;51.840;12.184;2023-06-04T07:50:01;9.30;;;9.10;;
2892;SDS011;1456;51.840;12.184;2023-06-04T07:52:31;9.40;;;8.90;;
2892;SDS011;1456;51.840;12.184;2023-06-04T07:54:57;8.80;;;8.70;;
2892;SDS011;1456;51.840;12.184;2023-06-04T07:57:25;9.00;;;8.90;;
2892;SDS011;1456;51.840;12.184;2023-06-04T07:59:51;8.60;;;8.50;;
2892;SDS011;1456;51.840;12.184;2023-06-04T08:02:16;9.20;;;9.10;;
2892;SDS011;1456;51.840;12.184;2023-06-04T08:04:43;9.10;;;9.00;;
2892;SDS011;1456;51.840;12.184;2023-06-04T08:07:10;9.70;;;9.43;;
2892;SDS011;1456;51.840;12.184;2023-06-04T08:09:36;9.23;;;9.10;;
2892;SDS011;1456;51.840;12.184;2023-06-04T08:12:01;9.50;;;9.33;;
2892;SDS011;1456;51.840;12.184;2023-06-04T08:14:27;9.20;;;9.10;;
2892;SDS011;1456;51.840;12.184;2023-06-04T08:16:54;9.00;;;8.90;;
2892;SDS011;1456;51.840;12.184;2023-06-04T08:19:19;9.00;;;8.90;;
2892;SDS011;1456;51.840;12.184;2023-06-04T08:21:45;8.93;;;8.83;;
2892;SDS011;1456;51.840;12.184;2023-06-04T08:24:12;9.30;;;9.10;;
2892;SDS011;1456;51.840;12.184;2023-06-04T08:26:43;9.40;;;9.30;;
2892;SDS011;1456;51.840;12.184;2023-06-04T08:29:10;9.80;;;9.70;;
2892;SDS011;1456;51.840;12.184;2023-06-04T08:31:36;9.13;;;9.03;;
2892;SDS011;1456;51.840;12.184;2023-06-04T08:36:33;9.70;;;9.60;;
2892;SDS011;1456;51.840;12.184;2023-06-04T08:38:59;9.27;;;9.17;;
2892;SDS011;1456;51.840;12.184;2023-06-04T08:41:29;9.03;;;8.93;;
2892;SDS011;1456;51.840;12.184;2023-06-04T08:44:09;9.37;;;9.27;;
2892;SDS011;1456;51.840;12.184;2023-06-04T08:46:39;9.10;;;9.00;;
2892;SDS011;1456;51.840;12.184;2023-06-04T08:49:05;9.60;;;9.50;;
2892;SDS011;1456;51.840;12.184;2023-06-04T08:51:32;9.87;;;9.70;;
2892;SDS011;1456;51.840;12.184;2023-06-04T08:54:00;9.80;;;9.70;;
2892;SDS011;1456;51.840;12.184;2023-06-04T08:56:26;10.07;;;9.93;;
2892;SDS011;1456;51.840;12.184;2023-06-04T08:58:55;9.90;;;9.80;;
2892;SDS011;1456;51.840;12.184;2023-06-04T09:01:26;9.90;;;9.80;;
2892;SDS011;1456;51.840;12.184;2023-06-04T09:03:52;10.20;;;10.10;;
2892;SDS011;1456;51.840;12.184;2023-06-04T09:06:19;9.77;;;9.67;;
2892;SDS011;1456;51.840;12.184;2023-06-04T09:08:45;9.70;;;9.60;;
2892;SDS011;1456;51.840;12.184;2023-06-04T09:11:13;9.90;;;9.80;;
2892;SDS011;1456;51.840;12.184;2023-06-04T09:13:41;10.00;;;9.90;;
2892;SDS011;1456;51.840;12.184;2023-06-04T09:16:09;10.17;;;10.00;;
2892;SDS011;1456;51.840;12.184;2023-06-04T09:18:35;10.43;;;10.20;;
2892;SDS011;1456;51.840;12.184;2023-06-04T09:21:04;9.40;;;9.30;;
2892;SDS011;1456;51.840;12.184;2023-06-04T09:23:31;9.80;;;9.70;;
2892;SDS011;1456;51.840;12.184;2023-06-04T09:26:08;10.37;;;9.97;;
2892;SDS011;1456;51.840;12.184;2023-06-04T09:28:35;10.57;;;10.27;;
2892;SDS011;1456;51.840;12.184;2023-06-04T09:33:45;9.80;;;9.70;;
2892;SDS011;1456;51.840;12.184;2023-06-04T09:36:14;9.70;;;9.60;;
2892;SDS011;1456;51.840;12.184;2023-06-04T09:38:41;9.70;;;9.60;;
2892;SDS011;1456;51.840;12.184;2023-06-04T09:41:11;10.50;;;10.30;;
2892;SDS011;1456;51.840;12.184;2023-06-04T09:43:37;10.20;;;10.10;;
2892;SDS011;1456;51.840;12.184;2023-06-04T09:46:13;10.30;;;10.10;;
2892;SDS011;1456;51.840;12.184;2023-06-04T09:48:40;10.60;;;10.40;;
2892;SDS011;1456;51.840;12.184;2023-06-04T09:51:16;10.33;;;10.13;;
2892;SDS011;1456;51.840;12.184;2023-06-04T09:53:53;9.83;;;9.73;;
2892;SDS011;1456;51.840;12.184;2023-06-04T09:56:20;9.50;;;9.40;;
2892;SDS011;1456;51.840;12.184;2023-06-04T09:58:47;9.60;;;9.50;;
2892;SDS011;1456;51.840;12.184;2023-06-04T10:01:14;10.60;;;10.40;;
2892;SDS011;1456;51.840;12.184;2023-06-04T10:03:41;10.57;;;10.40;;
2892;SDS011;1456;51.840;12.184;2023-06-04T10:06:14;10.40;;;10.20;;
2892;SDS011;1456;51.840;12.184;2023-06-04T10:08:44;9.53;;;9.43;;
2892;SDS011;1456;51.840;12.184;2023-06-04T10:11:11;9.43;;;9.33;;
2892;SDS011;1456;51.840;12.184;2023-06-04T10:13:44;9.87;;;9.77;;
2892;SDS011;1456;51.840;12.184;2023-06-04T10:16:18;10.00;;;9.90;;
2892;SDS011;1456;51.840;12.184;2023-06-04T10:18:45;10.20;;;10.10;;
2892;SDS011;1456;51.840;12.184;2023-06-04T10:21:13;10.33;;;10.23;;
2892;SDS011;1456;51.840;12.184;2023-06-04T10:23:39;11.00;;;10.73;;
2892;SDS011;1456;51.840;12.184;2023-06-04T10:26:09;9.60;;;9.50;;
2892;SDS011;1456;51.840;12.184;2023-06-04T10:28:42;9.53;;;9.43;;
2892;SDS011;1456;51.840;12.184;2023-06-04T10:31:11;10.70;;;10.30;;
2892;SDS011;1456;51.840;12.184;2023-06-04T10:33:38;10.50;;;10.30;;
2892;SDS011;1456;51.840;12.184;2023-06-04T10:36:19;10.50;;;10.30;;
2892;SDS011;1456;51.840;12.184;2023-06-04T10:38:47;10.77;;;10.60;;
2892;SDS011;1456;51.840;12.184;2023-06-04T10:41:17;10.47;;;10.23;;
2892;SDS011;1456;51.840;12.184;2023-06-04T10:43:47;9.97;;;9.87;;
2892;SDS011;1456;51.840;12.184;2023-06-04T10:46:20;10.40;;;10.30;;
2892;SDS011;1456;51.840;12.184;2023-06-04T10:51:13;10.17;;;10.07;;
2892;SDS011;1456;51.840;12.184;2023-06-04T10:53:38;10.60;;;10.50;;
2892;SDS011;1456;51.840;12.184;2023-06-04T10:56:04;10.53;;;10.43;;
2892;SDS011;1456;51.840;12.184;2023-06-04T10:58:34;10.10;;;9.90;;
2892;SDS011;1456;51.840;12.184;2023-06-04T11:01:00;10.07;;;9.97;;
2892;SDS011;1456;51.840;12.184;2023-06-04T11:03:36;9.97;;;9.87;;
2892;SDS011;1456;51.840;12.184;2023-06-04T11:06:02;10.10;;;10.00;;
2892;SDS011;1456;51.840;12.184;2023-06-04T11:08:39;10.37;;;10.27;;
2892;SDS011;1456;51.840;12.184;2023-06-04T11:11:10;9.80;;;9.67;;
2892;SDS011;1456;51.840;12.184;2023-06-04T11:13:37;10.93;;;10.73;;
2892;SDS011;1456;51.840;12.184;2023-06-04T11:16:03;11.00;;;10.70;;
2892;SDS011;1456;51.840;12.184;2023-06-04T11:18:40;11.00;;;10.80;;
2892;SDS011;1456;51.840;12.184;2023-06-04T11:21:06;10.77;;;10.57;;
2892;SDS011;1456;51.840;12.184;2023-06-04T11:23:32;10.50;;;10.30;;
2892;SDS011;1456;51.840;12.184;2023-06-04T11:25:59;10.23;;;10.10;;
2892;SDS011;1456;51.840;12.184;2023-06-04T11:28:26;11.70;;;10.93;;
2892;SDS011;1456;51.840;12.184;2023-06-04T11:30:56;10.10;;;10.00;;
2892;SDS011;1456;51.840;12.184;2023-06-04T11:33:30;11.83;;;11.40;;
2892;SDS011;1456;51.840;12.184;2023-06-04T11:36:09;10.20;;;10.10;;
2892;SDS011;1456;51.840;12.184;2023-06-04T11:38:36;10.90;;;10.70;;
2892;SDS011;1456;51.840;12.184;2023-06-04T11:41:02;10.57;;;10.37;;
2892;SDS011;1456;51.840;12.184;2023-06-04T11:43:30;11.00;;;10.70;;
2892;SDS011;1456;51.840;12.184;2023-06-04T11:45:57;10.80;;;10.60;;
2892;SDS011;1456;51.840;12.184;2023-06-04T11:48:23;10.10;;;10.00;;
2892;SDS011;1456;51.840;12.184;2023-06-04T11:50:49;10.37;;;10.17;;
2892;SDS011;1456;51.840;12.184;2023-06-04T11:53:15;12.03;;;11.83;;
2892;SDS011;1456;51.840;12.184;2023-06-04T11:55:41;10.80;;;10.60;;
2892;SDS011;1456;51.840;12.184;2023-06-04T11:58:07;10.80;;;10.60;;
2892;SDS011;1456;51.840;12.184;2023-06-04T12:00:33;10.27;;;10.17;;
2892;SDS011;1456;51.840;12.184;2023-06-04T12:02:59;10.93;;;10.73;;
2892;SDS011;1456;51.840;12.184;2023-06-04T12:05:31;11.13;;;10.43;;
2892;SDS011;1456;51.840;12.184;2023-06-04T12:08:03;11.33;;;11.10;;
2892;SDS011;1456;51.840;12.184;2023-06-04T12:10:41;11.30;;;11.10;;
2892;SDS011;1456;51.840;12.184;2023-06-04T12:13:08;11.33;;;11.03;;
2892;SDS011;1456;51.840;12.184;2023-06-04T12:15:35;11.33;;;10.93;;
2892;SDS011;1456;51.840;12.184;2023-06-04T12:18:01;10.60;;;10.30;;
2892;SDS011;1456;51.840;12.184;2023-06-04T12:20:39;11.53;;;11.33;;
2892;SDS011;1456;51.840;12.184;2023-06-04T12:23:07;10.90;;;10.70;;
2892;SDS011;1456;51.840;12.184;2023-06-04T12:25:34;11.37;;;11.17;;
2892;SDS011;1456;51.840;12.184;2023-06-04T12:28:02;10.90;;;10.70;;
2892;SDS011;1456;51.840;12.184;2023-06-04T12:30:38;11.60;;;11.40;;
2892;SDS011;1456;51.840;12.184;2023-06-04T12:33:05;10.97;;;10.77;;
2892;SDS011;1456;51.840;12.184;2023-06-04T12:35:32;11.20;;;10.90;;
2892;SDS011;1456;51.840;12.184;2023-06-04T12:37:58;12.00;;;11.70;;
2892;SDS011;1456;51.840;12.184;2023-06-04T12:40:26;11.07;;;10.87;;
2892;SDS011;1456;51.840;12.184;2023-06-04T12:42:53;11.90;;;11.70;;
2892;SDS011;1456;51.840;12.184;2023-06-04T12:45:19;11.10;;;10.90;;
2892;SDS011;1456;51.840;12.184;2023-06-04T12:47:45;11.27;;;11.07;;
2892;SDS011;1456;51.840;12.184;2023-06-04T12:50:11;11.43;;;11.23;;
2892;SDS011;1456;51.840;12.184;2023-06-04T12:52:37;11.57;;;11.27;;
2892;SDS011;1456;51.840;12.184;2023-06-04T12:55:03;11.83;;;11.63;;
2892;SDS011;1456;51.840;12.184;2023-06-04T12:57:29;11.77;;;11.47;;
2892;SDS011;1456;51.840;12.184;2023-06-04T12:59:54;11.10;;;10.90;;
2892;SDS011;1456;51.840;12.184;2023-06-04T13:02:21;11.60;;;11.30;;
2892;SDS011;1456;51.840;12.184;2023-06-04T13:04:49;11.10;;;10.90;;
2892;SDS011;1456;51.840;12.184;2023-06-04T13:07:19;11.17;;;10.97;;
2892;SDS011;1456;51.840;12.184;2023-06-04T13:09:45;11.20;;;11.00;;
2892;SDS011;1456;51.840;12.184;2023-06-04T13:12:11;10.97;;;10.77;;
2892;SDS011;1456;51.840;12.184;2023-06-04T13:14:36;11.77;;;11.53;;
2892;SDS011;1456;51.840;12.184;2023-06-04T13:17:02;10.93;;;10.73;;
2892;SDS011;1456;51.840;12.184;2023-06-04T13:19:28;11.43;;;11.23;;
2892;SDS011;1456;51.840;12.184;2023-06-04T13:21:54;11.77;;;11.57;;
2892;SDS011;1456;51.840;12.184;2023-06-04T13:24:19;11.60;;;11.30;;
2892;SDS011;1456;51.840;12.184;2023-06-04T13:26:46;11.27;;;11.00;;
2892;SDS011;1456;51.840;12.184;2023-06-04T13:29:13;11.80;;;11.60;;
2892;SDS011;1456;51.840;12.184;2023-06-04T13:31:41;16.53;;;12.20;;
2892;SDS011;1456;51.840;12.184;2023-06-04T13:34:06;11.17;;;10.97;;
2892;SDS011;1456;51.840;12.184;2023-06-04T13:36:32;11.60;;;11.40;;
2892;SDS011;1456;51.840;12.184;2023-06-04T13:38:58;11.50;;;11.30;;
2892;SDS011;1456;51.840;12.184;2023-06-04T13:41:23;11.20;;;11.00;;
2892;SDS011;1456;51.840;12.184;2023-06-04T13:43:50;11.63;;;11.37;;
2892;SDS011;1456;51.840;12.184;2023-06-04T13:46:16;11.43;;;11.23;;
2892;SDS011;1456;51.840;12.184;2023-06-04T13:48:41;10.70;;;10.50;;
2892;SDS011;1456;51.840;12.184;2023-06-04T13:51:07;10.73;;;10.53;;
2892;SDS011;1456;51.840;12.184;2023-06-04T13:53:33;10.60;;;10.40;;
2892;SDS011;1456;51.840;12.184;2023-06-04T13:55:58;10.80;;;10.60;;
2892;SDS011;1456;51.840;12.184;2023-06-04T13:58:25;10.50;;;10.30;;
2892;SDS011;1456;51.840;12.184;2023-06-04T14:00:51;10.80;;;10.60;;
2892;SDS011;1456;51.840;12.184;2023-06-04T14:03:17;10.63;;;10.43;;
2892;SDS011;1456;51.840;12.184;2023-06-04T14:05:42;11.73;;;11.03;;
2892;SDS011;1456;51.840;12.184;2023-06-04T14:08:08;10.73;;;10.53;;
2892;SDS011;1456;51.840;12.184;2023-06-04T14:10:34;11.07;;;10.87;;
2892;SDS011;1456;51.840;12.184;2023-06-04T14:13:01;10.30;;;10.20;;
2892;SDS011;1456;51.840;12.184;2023-06-04T14:15:27;10.70;;;10.53;;
2892;SDS011;1456;51.840;12.184;2023-06-04T14:17:53;10.73;;;10.53;;
2892;SDS011;1456;51.840;12.184;2023-06-04T14:20:19;10.20;;;10.10;;
2892;SDS011;1456;51.840;12.184;2023-06-04T14:22:45;11.17;;;10.97;;
2892;SDS011;1456;51.840;12.184;2023-06-04T14:25:10;11.30;;;11.10;;
2892;SDS011;1456;51.840;12.184;2023-06-04T14:27:36;10.77;;;10.67;;
2892;SDS011;1456;51.840;12.184;2023-06-04T14:30:02;10.63;;;10.43;;
2892;SDS011;1456;51.840;12.184;2023-06-04T14:32:28;9.83;;;9.63;;
2892;SDS011;1456;51.840;12.184;2023-06-04T14:34:54;10.33;;;10.23;;
2892;SDS011;1456;51.840;12.184;2023-06-04T14:37:22;10.20;;;10.00;;
2892;SDS011;1456;51.840;12.184;2023-06-04T14:39:48;10.13;;;10.03;;
2892;SDS011;1456;51.840;12.184;2023-06-04T14:42:13;10.27;;;10.07;;
2892;SDS011;1456;51.840;12.184;2023-06-04T14:44:40;10.30;;;10.10;;
2892;SDS011;1456;51.840;12.184;2023-06-04T14:47:06;10.17;;;10.03;;
2892;SDS011;1456;51.840;12.184;2023-06-04T14:49:32;10.10;;;10.00;;
2892;SDS011;1456;51.840;12.184;2023-06-04T14:51:57;10.00;;;9.80;;
2892;SDS011;1456;51.840;12.184;2023-06-04T14:54:23;10.40;;;10.30;;
2892;SDS011;1456;51.840;12.184;2023-06-04T14:56:49;10.77;;;10.57;;
2892;SDS011;1456;51.840;12.184;2023-06-04T14:59:15;11.03;;;10.83;;
2892;SDS011;1456;51.840;12.184;2023-06-04T15:01:41;11.40;;;11.10;;
2892;SDS011;1456;51.840;12.184;2023-06-04T15:04:07;11.00;;;10.70;;
2892;SDS011;1456;51.840;12.184;2023-06-04T15:06:33;10.40;;;10.20;;
2892;SDS011;1456;51.840;12.184;2023-06-04T15:09:00;10.13;;;10.03;;
2892;SDS011;1456;51.840;12.184;2023-06-04T15:11:26;11.00;;;10.80;;
2892;SDS011;1456;51.840;12.184;2023-06-04T15:13:52;11.03;;;10.83;;
2892;SDS011;1456;51.840;12.184;2023-06-04T15:16:18;10.80;;;10.60;;
2892;SDS011;1456;51.840;12.184;2023-06-04T15:18:45;11.17;;;10.97;;
2892;SDS011;1456;51.840;12.184;2023-06-04T15:21:11;11.10;;;10.90;;
2892;SDS011;1456;51.840;12.184;2023-06-04T15:23:37;13.20;;;11.97;;
2892;SDS011;1456;51.840;12.184;2023-06-04T15:26:02;9.93;;;9.83;;
2892;SDS011;1456;51.840;12.184;2023-06-04T15:28:28;9.70;;;9.60;;
2892;SDS011;1456;51.840;12.184;2023-06-04T15:30:54;10.20;;;10.00;;
2892;SDS011;1456;51.840;12.184;2023-06-04T15:33:20;9.47;;;9.37;;
2892;SDS011;1456;51.840;12.184;2023-06-04T15:35:48;9.63;;;9.53;;
2892;SDS011;1456;51.840;12.184;2023-06-04T15:38:14;10.10;;;10.00;;
2892;SDS011;1456;51.840;12.184;2023-06-04T15:40:41;10.10;;;10.00;;
2892;SDS011;1456;51.840;12.184;2023-06-04T15:43:09;11.70;;;11.40;;
2892;SDS011;1456;51.840;12.184;2023-06-04T15:45:35;10.60;;;10.40;;
2892;SDS011;1456;51.840;12.184;2023-06-04T15:48:00;10.40;;;10.30;;
2892;SDS011;1456;51.840;12.184;2023-06-04T15:50:26;9.90;;;9.80;;
2892;SDS011;1456;51.840;12.184;2023-06-04T15:52:51;9.90;;;9.80;;
2892;SDS011;1456;51.840;12.184;2023-06-04T15:55:18;10.20;;;10.10;;
2892;SDS011;1456;51.840;12.184;2023-06-04T15:57:44;10.30;;;10.20;;
2892;SDS011;1456;51.840;12.184;2023-06-04T16:00:10;10.13;;;10.00;;
2892;SDS011;1456;51.840;12.184;2023-06-04T16:02:37;10.07;;;9.87;;
2892;SDS011;1456;51.840;12.184;2023-06-04T16:05:03;9.43;;;9.33;;
2892;SDS011;1456;51.840;12.184;2023-06-04T16:07:29;9.53;;;9.43;;
2892;SDS011;1456;51.840;12.184;2023-06-04T16:09:55;9.37;;;9.27;;
2892;SDS011;1456;51.840;12.184;2023-06-04T16:12:21;10.57;;;10.17;;
2892;SDS011;1456;51.840;12.184;2023-06-04T16:14:46;9.50;;;9.40;;
2892;SDS011;1456;51.840;12.184;2023-06-04T16:17:12;9.60;;;9.50;;
2892;SDS011;1456;51.840;12.184;2023-06-04T16:19:38;9.40;;;9.30;;
2892;SDS011;1456;51.840;12.184;2023-06-04T16:22:04;9.23;;;9.13;;
2892;SDS011;1456;51.840;12.184;2023-06-04T16:24:29;9.87;;;9.60;;
2892;SDS011;1456;51.840;12.184;2023-06-04T16:26:55;9.83;;;9.73;;
2892;SDS011;1456;51.840;12.184;2023-06-04T16:29:22;9.97;;;9.87;;
2892;SDS011;1456;51.840;12.184;2023-06-04T16:31:47;9.80;;;9.60;;
2892;SDS011;1456;51.840;12.184;2023-06-04T16:34:13;9.73;;;9.53;;